sensor_id;sensor_type;location;lat;lon;timestamp;pressure;altitude;pressure_sealevel;temperature;humidity
21640;BME280;10981;45.462;10.974;2024-03-29T00:00:13;99931.72;;;6.23;100.00
21640;BME280;10981;45.462;10.974;2024-03-29T00:02:41;99909.69;;;6.04;100.00
21640;BME280;10981;45.462;10.974;2024-03-29T00:05:08;99918.94;;;6.09;100.00
21640;BME280;10981;45.462;10.974;2024-03-29T00:07:35;99923.69;;;6.15;100.00
21640;BME280;10981;45.462;10.974;2024-03-29T00:10:03;99915.03;;;6.14;100.00
21640;BME280;10981;45.462;10.974;2024-03-29T00:12:31;99905.09;;;6.08;100.00
21640;BME280;10981;45.462;10.974;2024-03-29T00:14:58;99907.81;;;6.07;100.00
21640;BME280;10981;45.462;10.974;2024-03-29T00:17:25;99909.00;;;6.02;100.00
21640;BME280;10981;45.462;10.974;2024-03-29T00:19:53;99926.13;;;6.05;100.00
21640;BME280;10981;45.462;10.974;2024-03-29T00:22:20;99926.84;;;6.18;100.00
21640;BME280;10981;45.462;10.974;2024-03-29T00:24:47;99929.56;;;6.17;100.00
21640;BME280;10981;45.462;10.974;2024-03-29T00:27:14;99940.31;;;6.24;100.00
21640;BME280;10981;45.462;10.974;2024-03-29T00:29:41;99939.50;;;6.23;100.00
21640;BME280;10981;45.462;10.974;2024-03-29T00:32:10;99942.22;;;6.21;100.00
21640;BME280;10981;45.462;10.974;2024-03-29T00:34:38;99935.81;;;6.14;100.00
21640;BME280;10981;45.462;10.974;2024-03-29T00:37:05;99956.34;;;6.06;100.00
21640;BME280;10981;45.462;10.974;2024-03-29T00:39:32;99953.75;;;6.06;100.00
21640;BME280;10981;45.462;10.974;2024-03-29T00:41:59;99940.81;;;5.93;100.00
21640;BME280;10981;45.462;10.974;2024-03-29T00:44:26;99951.09;;;5.70;100.00
21640;BME280;10981;45.462;10.974;2024-03-29T00:46:53;99944.72;;;5.50;100.00
21640;BME280;10981;45.462;10.974;2024-03-29T00:49:21;99955.28;;;5.60;100.00
21640;BME280;10981;45.462;10.974;2024-03-29T00:51:48;99940.22;;;5.65;100.00
21640;BME280;10981;45.462;10.974;2024-03-29T00:54:15;99942.88;;;5.64;100.00
21640;BME280;10981;45.462;10.974;2024-03-29T00:56:42;99956.47;;;5.67;100.00
21640;BME280;10981;45.462;10.974;2024-03-29T00:59:10;99962.09;;;5.74;100.00
21640;BME280;10981;45.462;10.974;2024-03-29T01:01:40;99970.44;;;5.78;100.00
21640;BME280;10981;45.462;10.974;2024-03-29T01:04:07;99976.38;;;5.80;100.00
21640;BME280;10981;45.462;10.974;2024-03-29T01:06:34;99987.13;;;5.86;100.00
21640;BME280;10981;45.462;10.974;2024-03-29T01:09:02;99978.28;;;5.89;100.00
21640;BME280;10981;45.462;10.974;2024-03-29T01:11:30;99974.88;;;5.88;100.00
21640;BME280;10981;45.462;10.974;2024-03-29T01:13:57;99990.84;;;5.95;100.00
21640;BME280;10981;45.462;10.974;2024-03-29T01:16:25;99994.56;;;6.04;100.00
21640;BME280;10981;45.462;10.974;2024-03-29T01:18:52;100000.13;;;6.11;100.00
21640;BME280;10981;45.462;10.974;2024-03-29T01:21:19;100017.44;;;6.23;100.00
21640;BME280;10981;45.462;10.974;2024-03-29T01:23:46;100011.56;;;6.32;100.00
21640;BME280;10981;45.462;10.974;2024-03-29T01:26:14;100027.06;;;6.34;100.00
21640;BME280;10981;45.462;10.974;2024-03-29T01:28:43;100033.88;;;6.35;100.00
21640;BME280;10981;45.462;10.974;2024-03-29T01:31:11;100040.03;;;6.34;100.00
21640;BME280;10981;45.462;10.974;2024-03-29T01:33:39;100061.75;;;6.33;100.00
21640;BME280;10981;45.462;10.974;2024-03-29T01:36:08;100056.34;;;6.36;100.00
21640;BME280;10981;45.462;10.974;2024-03-29T01:38:35;100061.75;;;6.33;100.00
21640;BME280;10981;45.462;10.974;2024-03-29T01:41:02;100070.25;;;6.35;100.00
21640;BME280;10981;45.462;10.974;2024-03-29T01:43:30;100060.84;;;6.34;100.00
21640;BME280;10981;45.462;10.974;2024-03-29T01:45:57;100065.78;;;6.37;100.00
21640;BME280;10981;45.462;10.974;2024-03-29T01:48:26;100080.22;;;6.41;100.00
21640;BME280;10981;45.462;10.974;2024-03-29T01:50:56;100072.91;;;6.46;100.00
21640;BME280;10981;45.462;10.974;2024-03-29T01:53:25;100090.16;;;6.47;100.00
21640;BME280;10981;45.462;10.974;2024-03-29T01:55:53;100091.94;;;6.47;100.00
21640;BME280;10981;45.462;10.974;2024-03-29T01:58:21;100087.34;;;6.50;100.00
21640;BME280;10981;45.462;10.974;2024-03-29T02:00:54;100097.63;;;6.52;100.00
21640;BME280;10981;45.462;10.974;2024-03-29T02:03:22;100114.16;;;6.51;100.00
21640;BME280;10981;45.462;10.974;2024-03-29T02:05:50;100112.16;;;6.54;100.00
21640;BME280;10981;45.462;10.974;2024-03-29T02:08:19;100117.13;;;6.58;100.00
21640;BME280;10981;45.462;10.974;2024-03-29T02:10:47;100106.72;;;6.58;100.00
21640;BME280;10981;45.462;10.974;2024-03-29T02:13:15;100103.81;;;6.62;100.00
21640;BME280;10981;45.462;10.974;2024-03-29T02:15:42;100088.09;;;6.64;100.00
21640;BME280;10981;45.462;10.974;2024-03-29T02:18:09;100096.50;;;6.67;100.00
21640;BME280;10981;45.462;10.974;2024-03-29T02:20:37;100103.97;;;6.72;100.00
21640;BME280;10981;45.462;10.974;2024-03-29T02:23:08;100110.59;;;6.76;100.00
21640;BME280;10981;45.462;10.974;2024-03-29T02:25:38;100113.31;;;6.75;100.00
21640;BME280;10981;45.462;10.974;2024-03-29T02:28:05;100110.00;;;6.73;100.00
21640;BME280;10981;45.462;10.974;2024-03-29T02:30:33;100121.00;;;6.76;100.00
21640;BME280;10981;45.462;10.974;2024-03-29T02:33:03;100129.41;;;6.80;100.00
21640;BME280;10981;45.462;10.974;2024-03-29T02:35:30;100132.00;;;6.80;100.00
21640;BME280;10981;45.462;10.974;2024-03-29T02:37:58;100140.75;;;6.79;100.00
21640;BME280;10981;45.462;10.974;2024-03-29T02:40:25;100140.63;;;6.80;100.00
21640;BME280;10981;45.462;10.974;2024-03-29T02:42:52;100149.47;;;6.78;100.00
21640;BME280;10981;45.462;10.974;2024-03-29T02:45:19;100170.28;;;6.78;100.00
21640;BME280;10981;45.462;10.974;2024-03-29T02:47:46;100168.59;;;6.77;100.00
21640;BME280;10981;45.462;10.974;2024-03-29T02:50:15;100163.09;;;6.81;100.00
21640;BME280;10981;45.462;10.974;2024-03-29T02:52:42;100162.84;;;6.84;100.00
21640;BME280;10981;45.462;10.974;2024-03-29T02:55:12;100167.09;;;6.85;100.00
21640;BME280;10981;45.462;10.974;2024-03-29T02:57:40;100178.25;;;6.87;100.00
21640;BME280;10981;45.462;10.974;2024-03-29T03:00:08;100167.00;;;6.87;100.00
21640;BME280;10981;45.462;10.974;2024-03-29T03:02:39;100166.19;;;6.86;100.00
21640;BME280;10981;45.462;10.974;2024-03-29T03:05:07;100165.25;;;6.87;100.00
21640;BME280;10981;45.462;10.974;2024-03-29T03:07:35;100167.41;;;6.94;100.00
21640;BME280;10981;45.462;10.974;2024-03-29T03:10:21;100180.41;;;6.94;100.00
21640;BME280;10981;45.462;10.974;2024-03-29T03:13:07;100162.88;;;6.96;100.00
21640;BME280;10981;45.462;10.974;2024-03-29T03:15:34;100155.94;;;6.96;100.00
21640;BME280;10981;45.462;10.974;2024-03-29T03:18:01;100161.00;;;6.98;100.00
21640;BME280;10981;45.462;10.974;2024-03-29T03:20:31;100170.47;;;6.99;100.00
21640;BME280;10981;45.462;10.974;2024-03-29T03:22:59;100172.84;;;7.02;100.00
21640;BME280;10981;45.462;10.974;2024-03-29T03:25:30;100175.44;;;7.02;100.00
21640;BME280;10981;45.462;10.974;2024-03-29T03:27:57;100172.97;;;7.00;100.00
21640;BME280;10981;45.462;10.974;2024-03-29T03:30:24;100185.72;;;7.03;100.00
21640;BME280;10981;45.462;10.974;2024-03-29T03:32:51;100186.34;;;7.07;100.00
21640;BME280;10981;45.462;10.974;2024-03-29T03:35:18;100184.78;;;7.04;100.00
21640;BME280;10981;45.462;10.974;2024-03-29T03:37:46;100174.63;;;7.01;100.00
21640;BME280;10981;45.462;10.974;2024-03-29T03:40:13;100171.19;;;7.01;100.00
21640;BME280;10981;45.462;10.974;2024-03-29T03:42:43;100179.72;;;7.03;100.00
21640;BME280;10981;45.462;10.974;2024-03-29T03:45:10;100176.06;;;7.06;100.00
21640;BME280;10981;45.462;10.974;2024-03-29T03:47:38;100193.44;;;7.05;100.00
21640;BME280;10981;45.462;10.974;2024-03-29T03:50:05;100204.53;;;7.07;100.00
21640;BME280;10981;45.462;10.974;2024-03-29T03:52:32;100178.66;;;7.06;100.00
21640;BME280;10981;45.462;10.974;2024-03-29T03:54:59;100176.88;;;7.06;100.00
21640;BME280;10981;45.462;10.974;2024-03-29T03:57:26;100173.56;;;7.04;100.00
21640;BME280;10981;45.462;10.974;2024-03-29T03:59:54;100177.00;;;7.04;100.00
21640;BME280;10981;45.462;10.974;2024-03-29T04:02:21;100184.47;;;7.09;100.00
21640;BME280;10981;45.462;10.974;2024-03-29T04:04:48;100181.97;;;7.08;100.00
21640;BME280;10981;45.462;10.974;2024-03-29T04:07:16;100190.72;;;7.07;100.00
21640;BME280;10981;45.462;10.974;2024-03-29T04:09:43;100197.34;;;7.11;100.00
21640;BME280;10981;45.462;10.974;2024-03-29T04:12:11;100203.97;;;7.15;100.00
21640;BME280;10981;45.462;10.974;2024-03-29T04:14:38;100203.41;;;7.23;100.00
21640;BME280;10981;45.462;10.974;2024-03-29T04:17:06;100197.88;;;7.27;100.00
21640;BME280;10981;45.462;10.974;2024-03-29T04:19:33;100189.34;;;7.25;100.00
21640;BME280;10981;45.462;10.974;2024-03-29T04:22:01;100200.00;;;7.22;100.00
21640;BME280;10981;45.462;10.974;2024-03-29T04:24:31;100203.06;;;7.27;100.00
21640;BME280;10981;45.462;10.974;2024-03-29T04:26:58;100202.25;;;7.27;100.00
21640;BME280;10981;45.462;10.974;2024-03-29T04:29:26;100195.59;;;7.23;100.00
21640;BME280;10981;45.462;10.974;2024-03-29T04:31:54;100200.00;;;7.22;100.00
21640;BME280;10981;45.462;10.974;2024-03-29T04:34:21;100189.78;;;7.19;100.00
21640;BME280;10981;45.462;10.974;2024-03-29T04:36:49;100185.66;;;7.16;100.00
21640;BME280;10981;45.462;10.974;2024-03-29T04:39:16;100189.09;;;7.17;100.00
21640;BME280;10981;45.462;10.974;2024-03-29T04:41:43;100196.06;;;7.16;100.00
21640;BME280;10981;45.462;10.974;2024-03-29T04:44:13;100193.84;;;7.23;100.00
21640;BME280;10981;45.462;10.974;2024-03-29T04:46:40;100188.53;;;7.25;100.00
21640;BME280;10981;45.462;10.974;2024-03-29T04:49:08;100187.91;;;7.21;100.00
21640;BME280;10981;45.462;10.974;2024-03-29T04:51:35;100193.00;;;7.23;100.00
21640;BME280;10981;45.462;10.974;2024-03-29T04:54:02;100202.97;;;7.29;100.00
21640;BME280;10981;45.462;10.974;2024-03-29T04:56:29;100209.50;;;7.34;100.00
21640;BME280;10981;45.462;10.974;2024-03-29T04:58:56;100206.97;;;7.33;100.00
21640;BME280;10981;45.462;10.974;2024-03-29T05:01:24;100208.88;;;7.31;100.00
21640;BME280;10981;45.462;10.974;2024-03-29T05:03:51;100206.63;;;7.26;100.00
21640;BME280;10981;45.462;10.974;2024-03-29T05:06:19;100210.28;;;7.24;100.00
21640;BME280;10981;45.462;10.974;2024-03-29T05:08:46;100212.16;;;7.22;100.00
21640;BME280;10981;45.462;10.974;2024-03-29T05:11:13;100213.13;;;7.20;100.00
21640;BME280;10981;45.462;10.974;2024-03-29T05:13:42;100208.63;;;7.23;100.00
21640;BME280;10981;45.462;10.974;2024-03-29T05:16:09;100210.16;;;7.25;100.00
21640;BME280;10981;45.462;10.974;2024-03-29T05:18:37;100207.34;;;7.28;100.00
21640;BME280;10981;45.462;10.974;2024-03-29T05:21:04;100215.97;;;7.29;100.00
21640;BME280;10981;45.462;10.974;2024-03-29T05:23:32;100216.34;;;7.35;100.00
21640;BME280;10981;45.462;10.974;2024-03-29T05:25:59;100224.06;;;7.37;100.00
21640;BME280;10981;45.462;10.974;2024-03-29T05:28:27;100237.63;;;7.41;100.00
21640;BME280;10981;45.462;10.974;2024-03-29T05:30:54;100237.53;;;7.42;100.00
21640;BME280;10981;45.462;10.974;2024-03-29T05:33:22;100244.38;;;7.43;100.00
21640;BME280;10981;45.462;10.974;2024-03-29T05:35:49;100241.78;;;7.43;100.00
21640;BME280;10981;45.462;10.974;2024-03-29T05:38:16;100249.59;;;7.43;100.00
21640;BME280;10981;45.462;10.974;2024-03-29T05:40:43;100243.69;;;7.41;100.00
21640;BME280;10981;45.462;10.974;2024-03-29T05:43:13;100240.47;;;7.38;100.00
21640;BME280;10981;45.462;10.974;2024-03-29T05:45:40;100233.50;;;7.38;100.00
21640;BME280;10981;45.462;10.974;2024-03-29T05:48:07;100243.19;;;7.36;100.00
21640;BME280;10981;45.462;10.974;2024-03-29T05:50:35;100240.03;;;7.44;100.00
21640;BME280;10981;45.462;10.974;2024-03-29T05:53:02;100253.66;;;7.47;100.00
21640;BME280;10981;45.462;10.974;2024-03-29T05:55:30;100248.31;;;7.49;100.00
21640;BME280;10981;45.462;10.974;2024-03-29T05:57:58;100247.38;;;7.50;100.00
21640;BME280;10981;45.462;10.974;2024-03-29T06:00:25;100243.34;;;7.46;100.00
21640;BME280;10981;45.462;10.974;2024-03-29T06:02:52;100254.81;;;7.55;100.00
21640;BME280;10981;45.462;10.974;2024-03-29T06:05:20;100255.44;;;7.58;100.00
21640;BME280;10981;45.462;10.974;2024-03-29T06:07:47;100265.03;;;7.58;100.00
21640;BME280;10981;45.462;10.974;2024-03-29T06:10:14;100267.28;;;7.62;100.00
21640;BME280;10981;45.462;10.974;2024-03-29T06:12:43;100263.84;;;7.62;100.00
21640;BME280;10981;45.462;10.974;2024-03-29T06:15:11;100268.56;;;7.57;100.00
21640;BME280;10981;45.462;10.974;2024-03-29T06:17:56;100265.63;;;7.61;100.00
21640;BME280;10981;45.462;10.974;2024-03-29T06:20:24;100272.03;;;7.68;100.00
21640;BME280;10981;45.462;10.974;2024-03-29T06:22:51;100264.81;;;7.72;100.00
21640;BME280;10981;45.462;10.974;2024-03-29T06:25:19;100268.25;;;7.73;100.00
21640;BME280;10981;45.462;10.974;2024-03-29T06:27:46;100265.66;;;7.73;100.00
21640;BME280;10981;45.462;10.974;2024-03-29T06:30:16;100266.13;;;7.78;100.00
21640;BME280;10981;45.462;10.974;2024-03-29T06:32:44;100277.03;;;7.83;100.00
21640;BME280;10981;45.462;10.974;2024-03-29T06:35:12;100274.31;;;7.84;100.00
21640;BME280;10981;45.462;10.974;2024-03-29T06:37:40;100268.38;;;7.82;100.00
21640;BME280;10981;45.462;10.974;2024-03-29T06:40:09;100270.28;;;7.80;100.00
21640;BME280;10981;45.462;10.974;2024-03-29T06:42:36;100274.44;;;7.83;100.00
21640;BME280;10981;45.462;10.974;2024-03-29T06:45:07;100272.53;;;7.85;100.00
21640;BME280;10981;45.462;10.974;2024-03-29T06:47:36;100269.09;;;7.84;100.00
21640;BME280;10981;45.462;10.974;2024-03-29T06:50:06;100268.84;;;7.88;100.00
21640;BME280;10981;45.462;10.974;2024-03-29T06:52:33;100267.69;;;7.92;100.00
21640;BME280;10981;45.462;10.974;2024-03-29T06:55:00;100268.19;;;7.97;100.00
21640;BME280;10981;45.462;10.974;2024-03-29T06:57:28;100262.00;;;7.98;100.00
21640;BME280;10981;45.462;10.974;2024-03-29T06:59:58;100261.78;;;8.01;100.00
21640;BME280;10981;45.462;10.974;2024-03-29T07:02:25;100268.75;;;8.12;100.00
21640;BME280;10981;45.462;10.974;2024-03-29T07:04:53;100275.97;;;8.19;100.00
21640;BME280;10981;45.462;10.974;2024-03-29T07:07:20;100267.59;;;8.27;100.00
21640;BME280;10981;45.462;10.974;2024-03-29T07:09:47;100257.53;;;8.34;100.00
21640;BME280;10981;45.462;10.974;2024-03-29T07:12:14;100263.31;;;8.38;100.00
21640;BME280;10981;45.462;10.974;2024-03-29T07:14:41;100272.56;;;8.42;100.00
21640;BME280;10981;45.462;10.974;2024-03-29T07:17:09;100285.47;;;8.43;100.00
21640;BME280;10981;45.462;10.974;2024-03-29T07:19:36;100270.66;;;8.44;100.00
21640;BME280;10981;45.462;10.974;2024-03-29T07:22:03;100274.84;;;8.46;100.00
21640;BME280;10981;45.462;10.974;2024-03-29T07:24:31;100259.75;;;8.50;100.00
21640;BME280;10981;45.462;10.974;2024-03-29T07:26:58;100245.06;;;8.60;100.00
21640;BME280;10981;45.462;10.974;2024-03-29T07:29:25;100241.47;;;8.73;100.00
21640;BME280;10981;45.462;10.974;2024-03-29T07:31:52;100242.97;;;8.87;100.00
21640;BME280;10981;45.462;10.974;2024-03-29T07:34:20;100257.53;;;9.00;100.00
21640;BME280;10981;45.462;10.974;2024-03-29T07:36:47;100253.34;;;9.09;100.00
21640;BME280;10981;45.462;10.974;2024-03-29T07:39:15;100247.34;;;9.19;100.00
21640;BME280;10981;45.462;10.974;2024-03-29T07:41:44;100253.44;;;9.19;100.00
21640;BME280;10981;45.462;10.974;2024-03-29T07:44:12;100258.50;;;9.21;100.00
21640;BME280;10981;45.462;10.974;2024-03-29T07:46:39;100268.13;;;9.20;100.00
21640;BME280;10981;45.462;10.974;2024-03-29T07:49:07;100270.94;;;9.28;100.00
21640;BME280;10981;45.462;10.974;2024-03-29T07:51:35;100270.66;;;9.31;100.00
21640;BME280;10981;45.462;10.974;2024-03-29T07:54:02;100273.28;;;9.31;100.00
21640;BME280;10981;45.462;10.974;2024-03-29T07:56:29;100274.72;;;9.36;100.00
21640;BME280;10981;45.462;10.974;2024-03-29T07:58:56;100272.53;;;9.41;100.00
21640;BME280;10981;45.462;10.974;2024-03-29T08:01:24;100276.09;;;9.40;100.00
21640;BME280;10981;45.462;10.974;2024-03-29T08:03:52;100275.97;;;9.41;100.00
21640;BME280;10981;45.462;10.974;2024-03-29T08:06:20;100285.47;;;9.42;100.00
21640;BME280;10981;45.462;10.974;2024-03-29T08:08:50;100290.44;;;9.45;100.00
21640;BME280;10981;45.462;10.974;2024-03-29T08:11:18;100290.06;;;9.50;100.00
21640;BME280;10981;45.462;10.974;2024-03-29T08:13:45;100291.47;;;9.54;100.00
21640;BME280;10981;45.462;10.974;2024-03-29T08:16:12;100295.59;;;9.57;100.00
21640;BME280;10981;45.462;10.974;2024-03-29T08:18:40;100289.28;;;9.59;100.00
21640;BME280;10981;45.462;10.974;2024-03-29T08:21:08;100292.63;;;9.61;100.00
21640;BME280;10981;45.462;10.974;2024-03-29T08:23:41;100291.91;;;9.59;100.00
21640;BME280;10981;45.462;10.974;2024-03-29T08:26:11;100288.09;;;9.63;100.00
21640;BME280;10981;45.462;10.974;2024-03-29T08:28:39;100287.84;;;9.67;100.00
21640;BME280;10981;45.462;10.974;2024-03-29T08:31:07;100296.13;;;9.72;100.00
21640;BME280;10981;45.462;10.974;2024-03-29T08:33:36;100303.81;;;9.73;100.00
21640;BME280;10981;45.462;10.974;2024-03-29T08:36:07;100296.69;;;9.75;100.00
21640;BME280;10981;45.462;10.974;2024-03-29T08:38:35;100297.94;;;9.81;100.00
21640;BME280;10981;45.462;10.974;2024-03-29T08:41:03;100289.88;;;9.84;100.00
21640;BME280;10981;45.462;10.974;2024-03-29T08:43:30;100296.88;;;9.84;100.00
21640;BME280;10981;45.462;10.974;2024-03-29T08:45:58;100295.09;;;9.84;100.00
21640;BME280;10981;45.462;10.974;2024-03-29T08:48:27;100286.03;;;9.88;100.00
21640;BME280;10981;45.462;10.974;2024-03-29T08:50:54;100291.91;;;10.02;100.00
21640;BME280;10981;45.462;10.974;2024-03-29T08:53:21;100301.13;;;10.06;100.00
21640;BME280;10981;45.462;10.974;2024-03-29T08:55:49;100284.78;;;10.13;100.00
21640;BME280;10981;45.462;10.974;2024-03-29T08:58:16;100292.03;;;10.31;100.00
21640;BME280;10981;45.462;10.974;2024-03-29T09:00:53;100288.69;;;10.60;100.00
21640;BME280;10981;45.462;10.974;2024-03-29T09:03:31;100285.72;;;10.84;100.00
21640;BME280;10981;45.462;10.974;2024-03-29T09:05:59;100292.38;;;11.27;100.00
21640;BME280;10981;45.462;10.974;2024-03-29T09:08:26;100289.56;;;11.68;100.00
21640;BME280;10981;45.462;10.974;2024-03-29T09:10:53;100285.69;;;12.02;100.00
21640;BME280;10981;45.462;10.974;2024-03-29T09:13:20;100284.72;;;12.31;100.00
21640;BME280;10981;45.462;10.974;2024-03-29T09:15:48;100286.84;;;12.55;100.00
21640;BME280;10981;45.462;10.974;2024-03-29T09:18:16;100285.28;;;12.80;100.00
21640;BME280;10981;45.462;10.974;2024-03-29T09:20:55;100288.25;;;12.95;100.00
21640;BME280;10981;45.462;10.974;2024-03-29T09:23:22;100299.88;;;13.29;100.00
21640;BME280;10981;45.462;10.974;2024-03-29T09:25:50;100296.81;;;13.51;100.00
21640;BME280;10981;45.462;10.974;2024-03-29T09:28:17;100299.16;;;13.81;100.00
21640;BME280;10981;45.462;10.974;2024-03-29T09:30:48;100301.09;;;14.05;100.00
21640;BME280;10981;45.462;10.974;2024-03-29T09:33:15;100307.66;;;14.01;100.00
21640;BME280;10981;45.462;10.974;2024-03-29T09:35:42;100319.31;;;13.98;100.00
21640;BME280;10981;45.462;10.974;2024-03-29T09:38:10;100308.97;;;13.97;100.00
21640;BME280;10981;45.462;10.974;2024-03-29T09:40:38;100312.28;;;13.99;100.00
21640;BME280;10981;45.462;10.974;2024-03-29T09:43:06;100315.44;;;14.11;100.00
21640;BME280;10981;45.462;10.974;2024-03-29T09:45:34;100303.19;;;14.28;100.00
21640;BME280;10981;45.462;10.974;2024-03-29T09:48:04;100305.25;;;14.42;100.00
21640;BME280;10981;45.462;10.974;2024-03-29T09:50:33;100315.88;;;14.67;100.00
21640;BME280;10981;45.462;10.974;2024-03-29T09:53:03;100310.88;;;14.98;100.00
21640;BME280;10981;45.462;10.974;2024-03-29T09:55:31;100318.16;;;15.29;100.00
21640;BME280;10981;45.462;10.974;2024-03-29T09:57:59;100315.53;;;15.54;100.00
21640;BME280;10981;45.462;10.974;2024-03-29T10:00:28;100318.81;;;15.73;100.00
21640;BME280;10981;45.462;10.974;2024-03-29T10:02:58;100320.66;;;15.89;100.00
21640;BME280;10981;45.462;10.974;2024-03-29T10:05:27;100314.34;;;16.06;100.00
21640;BME280;10981;45.462;10.974;2024-03-29T10:07:57;100312.34;;;16.16;100.00
21640;BME280;10981;45.462;10.974;2024-03-29T10:10:26;100304.44;;;16.08;100.00
21640;BME280;10981;45.462;10.974;2024-03-29T10:12:53;100305.44;;;15.99;100.00
21640;BME280;10981;45.462;10.974;2024-03-29T10:15:20;100294.91;;;15.99;100.00
21640;BME280;10981;45.462;10.974;2024-03-29T10:17:51;100301.31;;;16.05;100.00
21640;BME280;10981;45.462;10.974;2024-03-29T10:20:20;100290.25;;;16.09;100.00
21640;BME280;10981;45.462;10.974;2024-03-29T10:22:49;100290.88;;;16.20;100.00
21640;BME280;10981;45.462;10.974;2024-03-29T10:25:17;100292.84;;;16.26;100.00
21640;BME280;10981;45.462;10.974;2024-03-29T10:27:44;100294.63;;;16.33;100.00
21640;BME280;10981;45.462;10.974;2024-03-29T10:30:12;100301.88;;;16.31;100.00
21640;BME280;10981;45.462;10.974;2024-03-29T10:32:44;100306.66;;;16.36;100.00
21640;BME280;10981;45.462;10.974;2024-03-29T10:35:11;100300.69;;;16.42;100.00
21640;BME280;10981;45.462;10.974;2024-03-29T10:37:42;100296.41;;;16.41;100.00
21640;BME280;10981;45.462;10.974;2024-03-29T10:40:11;100293.75;;;16.41;100.00
21640;BME280;10981;45.462;10.974;2024-03-29T10:42:43;100291.63;;;16.37;100.00
21640;BME280;10981;45.462;10.974;2024-03-29T10:45:12;100299.09;;;16.33;100.00
21640;BME280;10981;45.462;10.974;2024-03-29T10:47:41;100295.91;;;16.38;100.00
21640;BME280;10981;45.462;10.974;2024-03-29T10:50:12;100292.34;;;16.30;100.00
21640;BME280;10981;45.462;10.974;2024-03-29T10:52:40;100295.75;;;16.39;100.00
21640;BME280;10981;45.462;10.974;2024-03-29T10:55:09;100295.59;;;16.32;100.00
21640;BME280;10981;45.462;10.974;2024-03-29T10:57:42;100300.22;;;16.39;100.00
21640;BME280;10981;45.462;10.974;2024-03-29T11:00:16;100306.41;;;16.54;100.00
21640;BME280;10981;45.462;10.974;2024-03-29T11:05:40;100301.22;;;16.69;100.00
21640;BME280;10981;45.462;10.974;2024-03-29T11:08:09;100299.47;;;16.93;100.00
21640;BME280;10981;45.462;10.974;2024-03-29T11:10:40;100301.75;;;17.19;100.00
21640;BME280;10981;45.462;10.974;2024-03-29T11:13:34;100295.38;;;16.82;100.00
21640;BME280;10981;45.462;10.974;2024-03-29T11:16:05;100288.72;;;17.18;100.00
21640;BME280;10981;45.462;10.974;2024-03-29T11:18:33;100273.88;;;17.55;100.00
21640;BME280;10981;45.462;10.974;2024-03-29T11:21:05;100269.13;;;17.65;100.00
21640;BME280;10981;45.462;10.974;2024-03-29T11:23:35;100261.94;;;17.74;100.00
21640;BME280;10981;45.462;10.974;2024-03-29T11:26:03;100256.56;;;17.67;100.00
21640;BME280;10981;45.462;10.974;2024-03-29T11:28:33;100254.28;;;17.79;100.00
21640;BME280;10981;45.462;10.974;2024-03-29T11:31:02;100254.34;;;17.94;100.00
21640;BME280;10981;45.462;10.974;2024-03-29T11:36:16;100247.28;;;17.86;100.00
21640;BME280;10981;45.462;10.974;2024-03-29T11:38:48;100240.88;;;17.65;100.00
21640;BME280;10981;45.462;10.974;2024-03-29T11:41:20;100244.63;;;17.71;100.00
21640;BME280;10981;45.462;10.974;2024-03-29T11:43:52;100243.41;;;17.59;100.00
21640;BME280;10981;45.462;10.974;2024-03-29T11:46:20;100241.94;;;17.56;100.00
21640;BME280;10981;45.462;10.974;2024-03-29T11:48:48;100232.56;;;17.54;100.00
21640;BME280;10981;45.462;10.974;2024-03-29T11:51:21;100223.63;;;17.55;100.00
21640;BME280;10981;45.462;10.974;2024-03-29T11:53:51;100228.19;;;17.61;100.00
21640;BME280;10981;45.462;10.974;2024-03-29T11:56:19;100229.84;;;17.77;100.00
21640;BME280;10981;45.462;10.974;2024-03-29T11:58:48;100237.69;;;17.85;100.00
21640;BME280;10981;45.462;10.974;2024-03-29T12:01:16;100232.25;;;18.02;100.00
21640;BME280;10981;45.462;10.974;2024-03-29T12:03:44;100229.59;;;18.17;100.00
21640;BME280;10981;45.462;10.974;2024-03-29T12:06:11;100226.28;;;18.00;100.00
21640;BME280;10981;45.462;10.974;2024-03-29T12:08:40;100220.38;;;18.12;100.00
21640;BME280;10981;45.462;10.974;2024-03-29T12:11:09;100217.63;;;18.21;100.00
21640;BME280;10981;45.462;10.974;2024-03-29T12:13:37;100212.44;;;17.97;100.00
21640;BME280;10981;45.462;10.974;2024-03-29T12:16:05;100225.75;;;18.19;100.00
21640;BME280;10981;45.462;10.974;2024-03-29T12:18:33;100222.50;;;18.39;100.00
21640;BME280;10981;45.462;10.974;2024-03-29T12:21:00;100222.53;;;18.60;100.00
21640;BME280;10981;45.462;10.974;2024-03-29T12:23:28;100215.47;;;18.68;100.00
21640;BME280;10981;45.462;10.974;2024-03-29T12:25:57;100211.31;;;18.80;100.00
21640;BME280;10981;45.462;10.974;2024-03-29T12:28:26;100204.69;;;18.69;100.00
21640;BME280;10981;45.462;10.974;2024-03-29T12:30:54;100194.13;;;18.91;100.00
21640;BME280;10981;45.462;10.974;2024-03-29T12:33:22;100200.88;;;18.93;100.00
21640;BME280;10981;45.462;10.974;2024-03-29T12:35:51;100199.63;;;19.18;100.00
21640;BME280;10981;45.462;10.974;2024-03-29T12:38:22;100200.63;;;19.17;100.00
21640;BME280;10981;45.462;10.974;2024-03-29T12:40:51;100196.28;;;19.09;100.00
21640;BME280;10981;45.462;10.974;2024-03-29T12:43:22;100183.13;;;19.16;100.00
21640;BME280;10981;45.462;10.974;2024-03-29T12:45:52;100183.63;;;19.33;100.00
21640;BME280;10981;45.462;10.974;2024-03-29T12:48:21;100179.50;;;19.23;100.00